createdAt,value
2019-05-15T00:02:45.527Z,93.90
2019-05-15T00:05:23.196Z,97.60
2019-05-15T00:08:00.602Z,86.40
2019-05-15T00:10:38.990Z,86.00
2019-05-15T00:13:18.542Z,86.60
2019-05-15T00:15:55.835Z,86.50
2019-05-15T00:18:34.595Z,99.90
2019-05-15T00:21:17.971Z,85.80
2019-05-15T00:24:00.701Z,99.90
2019-05-15T00:26:39.806Z,99.90
2019-05-15T00:29:19.933Z,94.70
2019-05-15T00:34:37.905Z,93.80
2019-05-15T00:37:15.297Z,95.10
2019-05-15T00:45:09.564Z,93.90
2019-05-15T00:47:48.487Z,93.70
2019-05-15T00:53:04.917Z,93.00
2019-05-15T00:55:41.446Z,92.50
2019-05-15T00:58:21.398Z,93.20
2019-05-15T01:00:59.171Z,93.50
2019-05-15T01:03:38.707Z,93.70
2019-05-15T01:11:31.711Z,93.80
2019-05-15T01:14:12.884Z,93.10
2019-05-15T01:16:50.546Z,93.10
2019-05-15T01:22:04.536Z,93.10
2019-05-15T01:27:18.759Z,92.20
2019-05-15T01:29:58.166Z,92.10
2019-05-15T01:32:35.825Z,92.30
2019-05-15T01:35:14.389Z,93.40
2019-05-15T01:37:53.647Z,93.60
2019-05-15T01:40:31.286Z,93.00
2019-05-15T01:43:13.761Z,80.90
2019-05-15T01:45:51.297Z,80.60
2019-05-15T01:48:31.052Z,80.40
2019-05-15T01:51:10.016Z,80.30
2019-05-15T01:53:48.049Z,80.50
2019-05-15T01:56:25.919Z,94.00
2019-05-15T01:59:05.064Z,80.40
2019-05-15T02:01:42.591Z,80.60
2019-05-15T02:04:21.281Z,82.60
2019-05-15T02:06:59.344Z,83.70
2019-05-15T02:09:38.434Z,84.40
2019-05-15T02:12:15.540Z,85.00
2019-05-15T02:14:54.254Z,84.90
2019-05-15T02:17:32.980Z,85.70
2019-05-15T02:20:10.524Z,96.30
2019-05-15T02:22:48.479Z,86.00
2019-05-15T02:28:05.680Z,95.80
2019-05-15T02:30:42.497Z,95.30
2019-05-15T02:33:23.006Z,95.10
2019-05-15T02:41:12.887Z,95.10
2019-05-15T02:43:52.169Z,94.20
2019-05-15T02:51:49.362Z,94.50
2019-05-15T02:54:29.916Z,94.60
2019-05-15T03:02:19.613Z,94.10
2019-05-15T03:07:32.334Z,83.20
2019-05-15T03:10:09.840Z,95.50
2019-05-15T03:12:50.937Z,95.00
2019-05-15T03:15:29.091Z,95.60
2019-05-15T03:18:09.577Z,84.20
2019-05-15T03:20:50.182Z,82.10
2019-05-15T03:23:29.621Z,80.80
2019-05-15T03:26:08.901Z,80.90
2019-05-15T03:28:49.377Z,81.30
2019-05-15T03:31:47.800Z,82.60
2019-05-15T03:34:04.074Z,83.90
2019-05-15T03:36:44.981Z,85.10
2019-05-15T03:39:22.471Z,95.80
2019-05-15T03:42:00.149Z,83.70
2019-05-15T03:44:39.314Z,83.30
2019-05-15T03:47:20.293Z,83.80
2019-05-15T03:50:00.117Z,83.90
2019-05-15T03:52:39.286Z,84.00
2019-05-15T03:55:18.582Z,84.00
2019-05-15T03:57:58.884Z,84.10
2019-05-15T04:00:34.647Z,83.70
2019-05-15T04:03:12.547Z,83.30
2019-05-15T04:05:50.326Z,83.10
2019-05-15T04:08:29.938Z,95.40
2019-05-15T04:11:09.191Z,83.00
2019-05-15T04:13:45.679Z,82.90
2019-05-15T04:16:23.226Z,95.00
2019-05-15T04:19:02.436Z,82.50
2019-05-15T04:21:44.711Z,81.80
2019-05-15T04:24:20.898Z,81.70
2019-05-15T04:27:05.707Z,81.30
2019-05-15T04:29:40.203Z,81.80
2019-05-15T04:32:20.222Z,81.60
2019-05-15T04:34:59.347Z,81.40
2019-05-15T04:37:40.168Z,81.40
2019-05-15T04:40:19.318Z,91.40
2019-05-15T04:45:35.099Z,89.80
2019-05-15T04:48:14.145Z,75.70
2019-05-15T04:50:52.078Z,74.80
2019-05-15T04:53:33.234Z,94.40
2019-05-15T04:58:50.572Z,99.60
2019-05-15T05:01:28.914Z,77.20
2019-05-15T05:04:05.926Z,77.20
2019-05-15T05:06:44.598Z,77.40
2019-05-15T05:09:24.460Z,77.10
2019-05-15T05:12:02.234Z,91.70
2019-05-15T05:14:41.507Z,90.40
2019-05-15T05:22:30.070Z,75.10
2019-05-15T05:25:08.127Z,84.70
2019-05-15T05:27:45.865Z,79.00
2019-05-15T05:30:23.740Z,84.60
2019-05-15T05:33:01.556Z,86.00
2019-05-15T05:35:38.967Z,83.20
2019-05-15T05:38:18.727Z,86.50
2019-05-15T05:40:58.582Z,69.80
2019-05-15T05:43:35.323Z,82.10
2019-05-15T05:46:12.805Z,68.90
2019-05-15T05:48:52.671Z,69.20
2019-05-15T05:56:45.174Z,85.70
2019-05-15T06:04:32.365Z,83.00
2019-05-15T06:07:14.194Z,81.60
2019-05-15T06:09:49.923Z,80.80
2019-05-15T06:15:09.158Z,80.80
2019-05-15T06:20:24.073Z,78.50
2019-05-15T06:28:14.671Z,80.60
2019-05-15T06:30:52.266Z,81.60
2019-05-15T06:33:31.588Z,82.50
2019-05-15T06:36:09.272Z,83.60
2019-05-15T06:38:48.594Z,86.20
2019-05-15T06:51:53.754Z,82.30
2019-05-15T06:54:31.226Z,79.90
2019-05-15T06:57:09.104Z,95.70
2019-05-15T06:59:48.469Z,80.80
2019-05-15T07:02:28.369Z,93.50
2019-05-15T07:05:07.929Z,91.20
2019-05-15T07:10:20.737Z,92.80
2019-05-15T07:12:58.505Z,92.80
2019-05-15T07:15:38.374Z,93.00
2019-05-15T07:18:16.167Z,94.20
2019-05-15T07:20:57.925Z,94.00
2019-05-15T07:23:33.978Z,94.10
2019-05-15T07:26:11.542Z,94.40
2019-05-15T07:31:31.647Z,93.30
2019-05-15T07:36:49.280Z,93.40
2019-05-15T07:39:28.889Z,93.70
2019-05-15T07:47:19.177Z,94.00
2019-05-15T07:55:09.183Z,94.20
2019-05-15T08:00:24.143Z,95.00
2019-05-15T08:03:01.725Z,95.00
2019-05-15T08:08:18.208Z,95.30
2019-05-15T08:13:30.852Z,95.50
2019-05-15T08:21:18.540Z,95.10
2019-05-15T08:23:59.077Z,95.10
2019-05-15T08:26:42.422Z,95.30
2019-05-15T08:31:53.516Z,92.60
2019-05-15T08:34:34.381Z,95.40
2019-05-15T08:37:12.172Z,95.50
2019-05-15T08:39:49.441Z,95.60
2019-05-15T08:42:32.002Z,95.80
2019-05-15T08:47:44.630Z,96.40
2019-05-15T08:50:23.423Z,95.70
2019-05-15T08:53:02.948Z,95.70
2019-05-15T08:58:20.618Z,95.60
2019-05-15T09:00:58.658Z,95.50
2019-05-15T09:03:38.034Z,95.70
2019-05-15T09:06:20.611Z,95.70
2019-05-15T09:11:34.784Z,95.60
2019-05-15T09:14:13.856Z,95.40
2019-05-15T09:19:28.063Z,93.60
2019-05-15T09:22:05.652Z,95.00
2019-05-15T09:27:18.500Z,95.00
2019-05-15T09:32:33.142Z,92.40
2019-05-15T09:35:11.737Z,91.50
2019-05-15T09:40:39.498Z,95.50
2019-05-15T09:43:10.752Z,92.50
2019-05-15T09:48:22.016Z,96.90
2019-05-15T09:51:03.589Z,96.80
2019-05-15T09:56:18.706Z,96.90
2019-05-15T10:01:39.251Z,97.40
2019-05-15T10:04:15.879Z,94.90
2019-05-15T10:06:55.364Z,97.40
2019-05-15T10:12:13.254Z,97.50
2019-05-15T10:17:28.950Z,97.40
2019-05-15T10:20:09.167Z,93.70
2019-05-15T10:22:48.223Z,97.50
2019-05-15T10:27:59.681Z,97.60
2019-05-15T10:30:39.463Z,97.60
2019-05-15T10:33:19.475Z,97.90
2019-05-15T10:35:59.079Z,97.80
2019-05-15T10:38:38.933Z,98.10
2019-05-15T10:43:56.267Z,98.30
2019-05-15T10:46:35.563Z,98.50
2019-05-15T10:51:49.768Z,98.30
2019-05-15T10:54:28.978Z,99.70
2019-05-15T10:57:08.546Z,91.60
2019-05-15T10:59:47.783Z,91.50
2019-05-15T11:02:29.010Z,99.90
2019-05-15T11:05:09.472Z,91.50
2019-05-15T11:07:48.274Z,99.90
2019-05-15T11:10:29.019Z,91.50
2019-05-15T11:13:08.968Z,91.50
2019-05-15T11:15:49.072Z,91.50
2019-05-15T11:18:30.469Z,99.90
2019-05-15T11:21:08.421Z,91.50
2019-05-15T11:23:51.635Z,91.40
2019-05-15T11:26:33.523Z,99.90
2019-05-15T11:29:14.054Z,91.40
2019-05-15T11:31:51.726Z,98.40
2019-05-15T11:37:07.133Z,97.90
2019-05-15T11:39:49.607Z,98.30
2019-05-15T11:42:31.613Z,98.10
2019-05-15T11:45:10.009Z,98.10
2019-05-15T11:50:29.303Z,98.20
2019-05-15T11:53:08.498Z,97.60
2019-05-15T11:55:48.090Z,98.20
2019-05-15T11:58:28.123Z,98.20
2019-05-15T12:01:05.071Z,98.60
2019-05-15T12:03:42.499Z,98.00
2019-05-15T12:08:58.826Z,98.20
2019-05-15T12:11:37.311Z,98.20
2019-05-15T12:14:13.652Z,98.30
2019-05-15T12:17:05.218Z,98.80
2019-05-15T12:24:43.589Z,99.30
2019-05-15T12:30:00.037Z,99.90
2019-05-15T12:32:41.176Z,99.90
2019-05-15T13:01:38.722Z,99.10
2019-05-15T13:04:20.693Z,99.40
2019-05-15T13:07:12.119Z,99.00
2019-05-15T13:09:38.897Z,99.70
2019-05-15T13:14:52.908Z,99.60
2019-05-15T13:20:06.671Z,96.80
2019-05-15T13:25:29.419Z,99.70
2019-05-15T13:28:08.853Z,99.00
2019-05-15T13:30:49.007Z,99.90
2019-05-15T13:33:27.356Z,99.90
2019-05-15T13:36:08.706Z,99.90
2019-05-15T13:38:48.119Z,99.90
2019-05-15T13:44:00.180Z,99.90
2019-05-15T13:46:38.094Z,99.90
2019-05-15T13:49:18.566Z,99.90
2019-05-15T13:51:55.583Z,99.90
2019-05-15T13:54:33.097Z,99.90
2019-05-15T13:57:10.721Z,93.30
2019-05-15T13:59:55.927Z,99.80
2019-05-15T14:02:33.492Z,99.90
2019-05-15T14:05:11.718Z,99.90
2019-05-15T14:07:53.195Z,94.40
2019-05-15T14:10:28.573Z,93.70
2019-05-15T14:13:08.552Z,93.30
2019-05-15T14:15:48.773Z,93.30
2019-05-15T14:18:28.412Z,93.30
2019-05-15T14:21:05.782Z,93.50
2019-05-15T14:23:43.338Z,93.50
2019-05-15T14:26:23.889Z,93.40
2019-05-15T14:29:00.313Z,93.40
2019-05-15T14:31:39.494Z,93.80
2019-05-15T14:34:18.648Z,93.50
2019-05-15T14:36:55.850Z,93.40
2019-05-15T14:39:37.728Z,93.50
2019-05-15T14:42:14.729Z,93.50
2019-05-15T14:44:52.053Z,93.50
2019-05-15T14:47:31.156Z,93.50
2019-05-15T14:50:10.202Z,93.60
2019-05-15T14:52:48.069Z,93.50
2019-05-15T14:55:33.261Z,99.90
2019-05-15T14:58:08.356Z,94.10
2019-05-15T15:00:45.136Z,97.20
2019-05-15T15:03:23.168Z,97.00
2019-05-15T15:06:00.644Z,93.80
2019-05-15T15:08:38.423Z,93.90
2019-05-15T15:11:20.793Z,94.00
2019-05-15T15:14:00.514Z,93.70
2019-05-15T15:16:41.014Z,93.80
2019-05-15T15:19:24.037Z,93.80
2019-05-15T15:22:01.833Z,94.70
2019-05-15T15:24:41.128Z,94.20
2019-05-15T15:27:23.777Z,99.90
2019-05-15T15:30:03.308Z,94.80
2019-05-15T15:32:43.398Z,94.70
2019-05-15T15:35:23.092Z,95.50
2019-05-15T15:38:00.557Z,99.90
2019-05-15T15:40:39.052Z,99.90
2019-05-15T15:43:18.416Z,99.90
2019-05-15T15:45:58.003Z,99.90
2019-05-15T15:48:39.107Z,94.40
2019-05-15T15:54:28.127Z,94.00
2019-05-15T15:57:08.322Z,94.60
2019-05-15T15:59:49.151Z,94.40
2019-05-15T16:02:27.966Z,94.20
2019-05-15T16:05:07.994Z,94.20
2019-05-15T16:07:48.388Z,94.50
2019-05-15T16:10:28.262Z,94.30
2019-05-15T16:13:05.772Z,95.00
2019-05-15T16:15:43.550Z,95.50
2019-05-15T16:18:21.086Z,94.70
2019-05-15T16:20:58.526Z,99.90
2019-05-15T16:23:38.599Z,98.40
2019-05-15T16:26:19.470Z,97.10
2019-05-15T16:29:01.335Z,97.40
2019-05-15T16:31:38.467Z,96.20
2019-05-15T16:34:18.884Z,96.30
2019-05-15T16:42:10.322Z,99.90
2019-05-15T16:47:22.657Z,97.30
2019-05-15T16:50:01.700Z,94.50
2019-05-15T16:52:53.158Z,99.90
2019-05-15T16:55:30.549Z,94.60
2019-05-15T16:58:09.309Z,94.50
2019-05-15T17:00:49.481Z,94.40
2019-05-15T17:03:28.705Z,94.40
2019-05-15T17:06:05.280Z,94.60
2019-05-15T17:08:42.976Z,94.70
2019-05-15T17:11:22.323Z,94.50
2019-05-15T17:13:59.848Z,94.60
2019-05-15T17:16:39.311Z,94.50
2019-05-15T17:21:51.722Z,99.90
2019-05-15T17:24:30.989Z,99.90
2019-05-15T17:27:10.307Z,99.90
2019-05-15T17:32:25.584Z,99.90
2019-05-15T17:35:03.023Z,94.90
2019-05-15T17:37:40.430Z,99.90
2019-05-15T17:40:18.152Z,94.80
2019-05-15T17:42:55.517Z,99.90
2019-05-15T17:45:33.003Z,99.90
2019-05-15T17:48:12.203Z,99.90
2019-05-15T17:50:52.633Z,99.90
2019-05-15T17:53:29.705Z,95.20
2019-05-15T17:56:07.382Z,95.10
2019-05-15T17:58:44.769Z,95.00
2019-05-15T18:04:05.073Z,99.90
2019-05-15T18:06:42.652Z,99.90
2019-05-15T18:09:24.880Z,95.00
2019-05-15T18:12:00.518Z,95.00
2019-05-15T18:14:38.330Z,95.00
2019-05-15T18:17:18.536Z,95.00
2019-05-15T18:19:54.533Z,95.10
2019-05-15T18:22:33.513Z,95.60
2019-05-15T18:25:11.878Z,95.20
2019-05-15T18:27:49.519Z,95.00
2019-05-15T18:30:28.335Z,99.90
2019-05-15T18:33:08.715Z,95.10
2019-05-15T18:35:48.640Z,95.10
2019-05-15T18:38:28.187Z,94.90
2019-05-15T18:41:09.073Z,96.20
2019-05-15T18:43:48.281Z,94.70
2019-05-15T18:46:28.720Z,99.90
2019-05-15T18:49:07.221Z,99.90
2019-05-15T18:51:44.911Z,99.90
2019-05-15T18:56:58.463Z,99.90
2019-05-15T18:59:36.381Z,99.90
2019-05-15T19:02:15.639Z,99.90
2019-05-15T19:04:55.233Z,99.90
2019-05-15T19:07:34.159Z,99.90
2019-05-15T19:10:14.111Z,99.90
2019-05-15T19:12:51.958Z,99.90
2019-05-15T19:15:30.386Z,99.90
2019-05-15T19:18:10.460Z,99.90
2019-05-15T19:20:48.675Z,99.90
2019-05-15T19:23:26.465Z,99.90
2019-05-15T19:26:04.072Z,99.90
2019-05-15T19:28:43.612Z,99.90
2019-05-15T19:33:59.299Z,99.90
2019-05-15T19:36:38.220Z,99.90
2019-05-15T19:39:18.864Z,99.90
2019-05-15T19:42:00.702Z,99.90
2019-05-15T19:44:38.049Z,99.90
2019-05-15T19:47:18.595Z,99.90
2019-05-15T19:49:57.782Z,99.90
2019-05-15T19:52:34.981Z,99.90
2019-05-15T19:55:14.691Z,99.90
2019-05-15T19:57:52.330Z,99.90
2019-05-15T20:00:30.280Z,99.90
2019-05-15T20:03:10.140Z,99.90
2019-05-15T20:05:51.051Z,99.90
2019-05-15T20:11:04.985Z,99.90
2019-05-15T20:13:42.743Z,99.90
2019-05-15T20:16:21.764Z,99.90
2019-05-15T20:19:01.341Z,99.90
2019-05-15T20:21:38.905Z,95.60
2019-05-15T20:24:18.510Z,99.90
2019-05-15T20:26:57.141Z,99.90
2019-05-15T20:29:38.203Z,99.90
2019-05-15T20:32:18.431Z,99.90
2019-05-15T20:34:57.788Z,99.90
2019-05-15T20:37:38.644Z,99.90
2019-05-15T20:40:18.046Z,99.90
2019-05-15T20:42:55.944Z,99.90
2019-05-15T20:45:33.531Z,99.90
2019-05-15T20:48:15.661Z,99.90
2019-05-15T20:50:54.340Z,99.90
2019-05-15T20:53:31.990Z,99.90
2019-05-15T20:56:12.179Z,99.90
2019-05-15T20:58:51.630Z,95.70
2019-05-15T21:04:27.954Z,95.20
2019-05-15T21:07:07.894Z,95.60
2019-05-15T21:09:48.323Z,95.60
2019-05-15T21:12:29.862Z,99.90
2019-05-15T21:15:08.403Z,95.50
2019-05-15T21:17:57.681Z,95.50
2019-05-15T21:20:29.943Z,95.60
2019-05-15T21:23:15.163Z,95.60
2019-05-15T21:25:53.049Z,95.60
2019-05-15T21:28:32.564Z,99.90
2019-05-15T21:31:10.318Z,99.90
2019-05-15T21:33:50.450Z,99.90
2019-05-15T21:36:31.201Z,99.90
2019-05-15T21:39:07.599Z,99.90
2019-05-15T21:41:48.912Z,99.90
2019-05-15T21:44:26.410Z,99.90
2019-05-15T21:47:04.125Z,99.90
2019-05-15T21:49:41.660Z,99.90
2019-05-15T21:52:20.638Z,99.90
2019-05-15T21:55:00.283Z,99.90
2019-05-15T21:57:39.319Z,99.90
2019-05-15T22:00:22.020Z,99.90
2019-05-15T22:02:59.743Z,99.90
2019-05-15T22:05:38.892Z,99.90
2019-05-15T22:08:18.520Z,95.40
2019-05-15T22:10:58.243Z,95.40
2019-05-15T22:13:39.343Z,95.40
2019-05-15T22:16:15.950Z,99.90
2019-05-15T22:18:54.612Z,95.20
2019-05-15T22:21:32.264Z,95.20
2019-05-15T22:24:10.061Z,99.90
2019-05-15T22:26:49.084Z,99.90
2019-05-15T22:32:01.834Z,99.90
2019-05-15T22:34:41.294Z,99.90
2019-05-15T22:40:00.838Z,99.90
2019-05-15T22:42:40.084Z,99.90
2019-05-15T22:45:21.403Z,99.90
2019-05-15T22:47:58.984Z,99.90
2019-05-15T22:55:51.019Z,96.30
2019-05-15T22:58:28.700Z,99.90
2019-05-15T23:01:08.887Z,97.80
2019-05-15T23:06:22.518Z,92.80
2019-05-15T23:09:01.578Z,99.90
2019-05-15T23:16:54.361Z,99.90
2019-05-15T23:19:32.013Z,99.90
2019-05-15T23:22:09.642Z,92.10
2019-05-15T23:24:48.659Z,92.10
2019-05-15T23:27:28.715Z,92.30
2019-05-15T23:30:08.699Z,94.10
2019-05-15T23:38:01.219Z,99.90
2019-05-15T23:40:38.804Z,99.90
2019-05-15T23:43:18.988Z,97.30
2019-05-15T23:45:58.761Z,91.50
2019-05-15T23:48:38.253Z,91.10
2019-05-15T23:51:15.882Z,91.10
2019-05-15T23:53:53.348Z,99.20
2019-05-15T23:56:31.523Z,98.00
2019-05-15T23:59:09.103Z,97.40
